sensor_id;sensor_type;location;lat;lon;timestamp;P1;durP1;ratioP1;P2;durP2;ratioP2
55647;SDS011;45266;48.756;9.246;2022-08-20T00:00:04;4.15;;;3.85;;
55647;SDS011;45266;48.756;9.246;2022-08-20T00:01:08;4.43;;;4.10;;
55647;SDS011;45266;48.756;9.246;2022-08-20T00:02:10;5.47;;;3.95;;
55647;SDS011;45266;48.756;9.246;2022-08-20T00:03:20;5.72;;;4.22;;
55647;SDS011;45266;48.756;9.246;2022-08-20T00:04:25;9.13;;;4.05;;
55647;SDS011;45266;48.756;9.246;2022-08-20T00:05:29;4.60;;;4.10;;
55647;SDS011;45266;48.756;9.246;2022-08-20T00:06:33;7.40;;;4.05;;
55647;SDS011;45266;48.756;9.246;2022-08-20T00:07:35;6.40;;;3.90;;
55647;SDS011;45266;48.756;9.246;2022-08-20T00:08:37;4.43;;;4.03;;
55647;SDS011;45266;48.756;9.246;2022-08-20T00:09:39;3.90;;;3.47;;
55647;SDS011;45266;48.756;9.246;2022-08-20T00:10:42;4.90;;;4.25;;
55647;SDS011;45266;48.756;9.246;2022-08-20T00:11:47;7.35;;;4.32;;
55647;SDS011;45266;48.756;9.246;2022-08-20T00:13:05;6.45;;;4.63;;
55647;SDS011;45266;48.756;9.246;2022-08-20T00:14:09;7.30;;;4.20;;
55647;SDS011;45266;48.756;9.246;2022-08-20T00:15:11;7.10;;;4.32;;
55647;SDS011;45266;48.756;9.246;2022-08-20T00:16:14;6.88;;;3.90;;
55647;SDS011;45266;48.756;9.246;2022-08-20T00:17:17;4.13;;;3.72;;
55647;SDS011;45266;48.756;9.246;2022-08-20T00:18:19;6.18;;;3.95;;
55647;SDS011;45266;48.756;9.246;2022-08-20T00:19:21;10.90;;;4.20;;
55647;SDS011;45266;48.756;9.246;2022-08-20T00:20:28;4.13;;;3.72;;
55647;SDS011;45266;48.756;9.246;2022-08-20T00:21:32;6.93;;;3.40;;
55647;SDS011;45266;48.756;9.246;2022-08-20T00:22:36;4.88;;;4.18;;
55647;SDS011;45266;48.756;9.246;2022-08-20T00:23:39;4.25;;;3.78;;
55647;SDS011;45266;48.756;9.246;2022-08-20T00:24:43;4.88;;;3.90;;
55647;SDS011;45266;48.756;9.246;2022-08-20T00:25:45;5.38;;;3.85;;
55647;SDS011;45266;48.756;9.246;2022-08-20T00:26:47;4.53;;;3.78;;
55647;SDS011;45266;48.756;9.246;2022-08-20T00:27:53;6.85;;;3.78;;
55647;SDS011;45266;48.756;9.246;2022-08-20T00:28:56;6.38;;;4.20;;
55647;SDS011;45266;48.756;9.246;2022-08-20T00:29:58;6.90;;;3.50;;
55647;SDS011;45266;48.756;9.246;2022-08-20T00:31:01;5.90;;;3.67;;
55647;SDS011;45266;48.756;9.246;2022-08-20T00:32:04;7.47;;;3.47;;
55647;SDS011;45266;48.756;9.246;2022-08-20T00:33:08;5.15;;;3.45;;
55647;SDS011;45266;48.756;9.246;2022-08-20T00:34:12;5.07;;;3.35;;
55647;SDS011;45266;48.756;9.246;2022-08-20T00:35:14;4.85;;;3.47;;
55647;SDS011;45266;48.756;9.246;2022-08-20T00:36:19;3.65;;;3.08;;
55647;SDS011;45266;48.756;9.246;2022-08-20T00:37:21;7.05;;;3.47;;
55647;SDS011;45266;48.756;9.246;2022-08-20T00:38:23;5.07;;;3.28;;
55647;SDS011;45266;48.756;9.246;2022-08-20T00:39:25;3.67;;;3.38;;
55647;SDS011;45266;48.756;9.246;2022-08-20T00:40:29;4.95;;;3.33;;
55647;SDS011;45266;48.756;9.246;2022-08-20T00:41:35;5.10;;;3.10;;
55647;SDS011;45266;48.756;9.246;2022-08-20T00:42:44;3.55;;;3.25;;
55647;SDS011;45266;48.756;9.246;2022-08-20T00:44:54;5.30;;;3.38;;
55647;SDS011;45266;48.756;9.246;2022-08-20T00:45:57;5.25;;;3.60;;
55647;SDS011;45266;48.756;9.246;2022-08-20T00:47:00;7.13;;;3.20;;
55647;SDS011;45266;48.756;9.246;2022-08-20T00:48:02;4.40;;;3.20;;
55647;SDS011;45266;48.756;9.246;2022-08-20T00:49:06;4.15;;;3.05;;
55647;SDS011;45266;48.756;9.246;2022-08-20T00:50:10;3.92;;;3.05;;
55647;SDS011;45266;48.756;9.246;2022-08-20T00:52:30;3.78;;;3.30;;
55647;SDS011;45266;48.756;9.246;2022-08-20T00:53:32;6.65;;;3.70;;
55647;SDS011;45266;48.756;9.246;2022-08-20T00:55:54;4.88;;;3.03;;
55647;SDS011;45266;48.756;9.246;2022-08-20T00:56:58;4.50;;;3.45;;
55647;SDS011;45266;48.756;9.246;2022-08-20T00:58:05;6.65;;;3.38;;
55647;SDS011;45266;48.756;9.246;2022-08-20T00:59:11;5.88;;;3.97;;
55647;SDS011;45266;48.756;9.246;2022-08-20T01:00:20;4.80;;;3.60;;
55647;SDS011;45266;48.756;9.246;2022-08-20T01:01:25;3.50;;;3.20;;
55647;SDS011;45266;48.756;9.246;2022-08-20T01:02:28;4.82;;;3.85;;
55647;SDS011;45266;48.756;9.246;2022-08-20T01:03:31;4.07;;;3.45;;
55647;SDS011;45266;48.756;9.246;2022-08-20T01:04:34;7.18;;;3.33;;
55647;SDS011;45266;48.756;9.246;2022-08-20T01:05:37;4.82;;;3.50;;
55647;SDS011;45266;48.756;9.246;2022-08-20T01:06:44;6.00;;;3.65;;
55647;SDS011;45266;48.756;9.246;2022-08-20T01:07:48;5.05;;;3.60;;
55647;SDS011;45266;48.756;9.246;2022-08-20T01:08:54;4.15;;;3.42;;
55647;SDS011;45266;48.756;9.246;2022-08-20T01:09:56;5.57;;;3.05;;
55647;SDS011;45266;48.756;9.246;2022-08-20T01:10:59;3.80;;;3.20;;
55647;SDS011;45266;48.756;9.246;2022-08-20T01:12:15;4.13;;;3.33;;
55647;SDS011;45266;48.756;9.246;2022-08-20T01:13:19;5.28;;;3.42;;
55647;SDS011;45266;48.756;9.246;2022-08-20T01:14:23;3.70;;;3.35;;
55647;SDS011;45266;48.756;9.246;2022-08-20T01:15:29;4.50;;;3.75;;
55647;SDS011;45266;48.756;9.246;2022-08-20T01:16:32;3.90;;;3.30;;
55647;SDS011;45266;48.756;9.246;2022-08-20T01:17:34;3.55;;;3.25;;
55647;SDS011;45266;48.756;9.246;2022-08-20T01:18:39;3.15;;;2.85;;
55647;SDS011;45266;48.756;9.246;2022-08-20T01:19:43;7.25;;;3.45;;
55647;SDS011;45266;48.756;9.246;2022-08-20T01:20:53;5.63;;;4.03;;
55647;SDS011;45266;48.756;9.246;2022-08-20T01:21:58;5.10;;;3.30;;
55647;SDS011;45266;48.756;9.246;2022-08-20T01:24:51;3.92;;;3.53;;
55647;SDS011;45266;48.756;9.246;2022-08-20T01:27:21;4.55;;;3.33;;
55647;SDS011;45266;48.756;9.246;2022-08-20T01:28:33;5.32;;;3.30;;
55647;SDS011;45266;48.756;9.246;2022-08-20T01:29:38;3.15;;;2.75;;
55647;SDS011;45266;48.756;9.246;2022-08-20T01:30:41;5.97;;;3.17;;
55647;SDS011;45266;48.756;9.246;2022-08-20T01:31:51;3.25;;;2.95;;
55647;SDS011;45266;48.756;9.246;2022-08-20T01:32:53;4.28;;;3.00;;
55647;SDS011;45266;48.756;9.246;2022-08-20T01:33:56;3.47;;;2.85;;
55647;SDS011;45266;48.756;9.246;2022-08-20T01:34:59;3.80;;;2.78;;
55647;SDS011;45266;48.756;9.246;2022-08-20T01:36:02;3.40;;;2.90;;
55647;SDS011;45266;48.756;9.246;2022-08-20T01:37:04;4.38;;;2.97;;
55647;SDS011;45266;48.756;9.246;2022-08-20T01:42:02;4.03;;;2.85;;
55647;SDS011;45266;48.756;9.246;2022-08-20T01:43:13;5.47;;;2.72;;
55647;SDS011;45266;48.756;9.246;2022-08-20T01:44:17;4.88;;;2.95;;
55647;SDS011;45266;48.756;9.246;2022-08-20T01:45:20;3.28;;;2.97;;
55647;SDS011;45266;48.756;9.246;2022-08-20T01:46:31;4.00;;;3.00;;
55647;SDS011;45266;48.756;9.246;2022-08-20T01:47:43;5.70;;;3.00;;
55647;SDS011;45266;48.756;9.246;2022-08-20T01:48:50;5.15;;;2.65;;
55647;SDS011;45266;48.756;9.246;2022-08-20T01:50:15;2.95;;;2.60;;
55647;SDS011;45266;48.756;9.246;2022-08-20T01:51:24;4.45;;;2.72;;
55647;SDS011;45266;48.756;9.246;2022-08-20T01:53:42;5.00;;;2.83;;
55647;SDS011;45266;48.756;9.246;2022-08-20T01:54:47;4.85;;;2.85;;
55647;SDS011;45266;48.756;9.246;2022-08-20T01:55:49;4.28;;;3.20;;
55647;SDS011;45266;48.756;9.246;2022-08-20T01:56:55;3.13;;;2.80;;
55647;SDS011;45266;48.756;9.246;2022-08-20T01:58:00;5.35;;;2.47;;
55647;SDS011;45266;48.756;9.246;2022-08-20T01:59:04;5.88;;;2.55;;
55647;SDS011;45266;48.756;9.246;2022-08-20T02:02:29;3.42;;;2.65;;
55647;SDS011;45266;48.756;9.246;2022-08-20T02:03:31;4.40;;;2.30;;
55647;SDS011;45266;48.756;9.246;2022-08-20T02:04:40;3.45;;;2.53;;
55647;SDS011;45266;48.756;9.246;2022-08-20T02:05:42;3.25;;;2.70;;
55647;SDS011;45266;48.756;9.246;2022-08-20T02:06:48;3.70;;;2.50;;
55647;SDS011;45266;48.756;9.246;2022-08-20T02:07:57;5.03;;;2.70;;
55647;SDS011;45266;48.756;9.246;2022-08-20T02:09:00;3.17;;;2.70;;
55647;SDS011;45266;48.756;9.246;2022-08-20T02:10:03;3.58;;;2.70;;
55647;SDS011;45266;48.756;9.246;2022-08-20T02:11:10;19.85;;;17.35;;
55647;SDS011;45266;48.756;9.246;2022-08-20T02:12:13;17.20;;;14.13;;
55647;SDS011;45266;48.756;9.246;2022-08-20T02:13:15;8.38;;;7.47;;
55647;SDS011;45266;48.756;9.246;2022-08-20T02:14:17;4.38;;;3.53;;
55647;SDS011;45266;48.756;9.246;2022-08-20T02:15:19;3.10;;;2.55;;
55647;SDS011;45266;48.756;9.246;2022-08-20T02:16:36;4.53;;;2.80;;
55647;SDS011;45266;48.756;9.246;2022-08-20T02:17:39;5.95;;;2.53;;
55647;SDS011;45266;48.756;9.246;2022-08-20T02:18:42;5.25;;;2.70;;
55647;SDS011;45266;48.756;9.246;2022-08-20T02:19:45;3.00;;;2.70;;
55647;SDS011;45266;48.756;9.246;2022-08-20T02:20:51;3.40;;;2.50;;
55647;SDS011;45266;48.756;9.246;2022-08-20T02:21:54;4.53;;;2.60;;
55647;SDS011;45266;48.756;9.246;2022-08-20T02:22:59;3.05;;;2.40;;
55647;SDS011;45266;48.756;9.246;2022-08-20T02:24:01;4.45;;;2.83;;
55647;SDS011;45266;48.756;9.246;2022-08-20T02:25:04;4.97;;;2.47;;
55647;SDS011;45266;48.756;9.246;2022-08-20T02:26:08;3.58;;;2.80;;
55647;SDS011;45266;48.756;9.246;2022-08-20T02:27:10;2.70;;;2.50;;
55647;SDS011;45266;48.756;9.246;2022-08-20T02:28:13;6.50;;;2.65;;
55647;SDS011;45266;48.756;9.246;2022-08-20T02:29:18;3.13;;;2.40;;
55647;SDS011;45266;48.756;9.246;2022-08-20T02:30:22;2.97;;;2.67;;
55647;SDS011;45266;48.756;9.246;2022-08-20T02:31:28;2.75;;;2.42;;
55647;SDS011;45266;48.756;9.246;2022-08-20T02:32:35;4.15;;;2.70;;
55647;SDS011;45266;48.756;9.246;2022-08-20T02:33:38;4.13;;;2.45;;
55647;SDS011;45266;48.756;9.246;2022-08-20T02:34:40;4.88;;;2.88;;
55647;SDS011;45266;48.756;9.246;2022-08-20T02:35:42;3.50;;;2.50;;
55647;SDS011;45266;48.756;9.246;2022-08-20T02:36:46;4.90;;;3.40;;
55647;SDS011;45266;48.756;9.246;2022-08-20T02:37:49;3.03;;;2.72;;
55647;SDS011;45266;48.756;9.246;2022-08-20T02:38:52;2.60;;;2.28;;
55647;SDS011;45266;48.756;9.246;2022-08-20T02:39:53;5.82;;;2.72;;
55647;SDS011;45266;48.756;9.246;2022-08-20T02:40:55;3.40;;;2.80;;
55647;SDS011;45266;48.756;9.246;2022-08-20T02:41:57;3.97;;;3.15;;
55647;SDS011;45266;48.756;9.246;2022-08-20T02:42:59;3.78;;;2.65;;
55647;SDS011;45266;48.756;9.246;2022-08-20T02:44:03;4.07;;;2.90;;
55647;SDS011;45266;48.756;9.246;2022-08-20T02:45:06;4.57;;;2.90;;
55647;SDS011;45266;48.756;9.246;2022-08-20T02:46:17;4.38;;;2.60;;
55647;SDS011;45266;48.756;9.246;2022-08-20T02:47:19;3.08;;;2.58;;
55647;SDS011;45266;48.756;9.246;2022-08-20T02:48:21;3.40;;;2.53;;
55647;SDS011;45266;48.756;9.246;2022-08-20T02:49:23;2.70;;;2.25;;
55647;SDS011;45266;48.756;9.246;2022-08-20T02:50:25;3.53;;;2.58;;
55647;SDS011;45266;48.756;9.246;2022-08-20T02:51:27;4.43;;;2.58;;
55647;SDS011;45266;48.756;9.246;2022-08-20T02:52:31;5.32;;;2.88;;
55647;SDS011;45266;48.756;9.246;2022-08-20T02:53:34;5.43;;;2.90;;
55647;SDS011;45266;48.756;9.246;2022-08-20T02:54:38;3.22;;;2.70;;
55647;SDS011;45266;48.756;9.246;2022-08-20T02:55:39;6.35;;;2.78;;
55647;SDS011;45266;48.756;9.246;2022-08-20T02:56:41;2.85;;;2.60;;
55647;SDS011;45266;48.756;9.246;2022-08-20T02:57:43;2.97;;;2.53;;
55647;SDS011;45266;48.756;9.246;2022-08-20T02:58:45;3.70;;;2.90;;
55647;SDS011;45266;48.756;9.246;2022-08-20T02:59:48;3.08;;;2.72;;
55647;SDS011;45266;48.756;9.246;2022-08-20T03:00:52;3.83;;;2.78;;
55647;SDS011;45266;48.756;9.246;2022-08-20T03:01:54;3.55;;;2.83;;
55647;SDS011;45266;48.756;9.246;2022-08-20T03:03:01;4.55;;;2.92;;
55647;SDS011;45266;48.756;9.246;2022-08-20T03:04:03;3.20;;;2.90;;
55647;SDS011;45266;48.756;9.246;2022-08-20T03:05:05;3.97;;;2.72;;
55647;SDS011;45266;48.756;9.246;2022-08-20T03:06:08;3.05;;;2.72;;
55647;SDS011;45266;48.756;9.246;2022-08-20T03:07:11;3.67;;;2.45;;
55647;SDS011;45266;48.756;9.246;2022-08-20T03:08:15;5.88;;;2.45;;
55647;SDS011;45266;48.756;9.246;2022-08-20T03:09:17;4.03;;;2.67;;
55647;SDS011;45266;48.756;9.246;2022-08-20T03:10:26;5.03;;;2.63;;
55647;SDS011;45266;48.756;9.246;2022-08-20T03:11:29;2.67;;;2.47;;
55647;SDS011;45266;48.756;9.246;2022-08-20T03:12:32;2.55;;;2.35;;
55647;SDS011;45266;48.756;9.246;2022-08-20T03:13:34;2.60;;;2.28;;
55647;SDS011;45266;48.756;9.246;2022-08-20T03:14:37;2.50;;;2.30;;
55647;SDS011;45266;48.756;9.246;2022-08-20T03:15:40;2.75;;;2.28;;
55647;SDS011;45266;48.756;9.246;2022-08-20T03:16:50;2.88;;;2.40;;
55647;SDS011;45266;48.756;9.246;2022-08-20T03:17:52;2.38;;;2.15;;
55647;SDS011;45266;48.756;9.246;2022-08-20T03:18:53;4.32;;;2.70;;
55647;SDS011;45266;48.756;9.246;2022-08-20T03:19:55;3.40;;;2.40;;
55647;SDS011;45266;48.756;9.246;2022-08-20T03:20:57;3.88;;;2.40;;
55647;SDS011;45266;48.756;9.246;2022-08-20T03:21:59;2.25;;;2.05;;
55647;SDS011;45266;48.756;9.246;2022-08-20T03:23:01;2.65;;;2.40;;
55647;SDS011;45266;48.756;9.246;2022-08-20T03:24:03;2.50;;;2.30;;
55647;SDS011;45266;48.756;9.246;2022-08-20T03:25:06;3.53;;;2.28;;
55647;SDS011;45266;48.756;9.246;2022-08-20T03:26:09;2.97;;;2.40;;
55647;SDS011;45266;48.756;9.246;2022-08-20T03:27:12;3.08;;;2.50;;
55647;SDS011;45266;48.756;9.246;2022-08-20T03:28:14;6.22;;;2.20;;
55647;SDS011;45266;48.756;9.246;2022-08-20T03:29:17;7.07;;;2.22;;
55647;SDS011;45266;48.756;9.246;2022-08-20T03:30:18;3.33;;;2.22;;
55647;SDS011;45266;48.756;9.246;2022-08-20T03:31:20;2.63;;;2.15;;
55647;SDS011;45266;48.756;9.246;2022-08-20T03:32:22;3.20;;;2.25;;
55647;SDS011;45266;48.756;9.246;2022-08-20T03:33:27;2.20;;;2.00;;
55647;SDS011;45266;48.756;9.246;2022-08-20T03:34:29;3.55;;;2.38;;
55647;SDS011;45266;48.756;9.246;2022-08-20T03:35:31;2.20;;;1.98;;
55647;SDS011;45266;48.756;9.246;2022-08-20T03:36:33;2.63;;;2.38;;
55647;SDS011;45266;48.756;9.246;2022-08-20T03:37:36;2.67;;;2.42;;
55647;SDS011;45266;48.756;9.246;2022-08-20T03:38:43;3.42;;;2.40;;
55647;SDS011;45266;48.756;9.246;2022-08-20T03:39:45;5.28;;;2.10;;
55647;SDS011;45266;48.756;9.246;2022-08-20T03:40:47;2.95;;;2.63;;
55647;SDS011;45266;48.756;9.246;2022-08-20T03:41:49;2.60;;;2.20;;
55647;SDS011;45266;48.756;9.246;2022-08-20T03:42:51;3.67;;;2.20;;
55647;SDS011;45266;48.756;9.246;2022-08-20T03:43:53;2.92;;;2.45;;
55647;SDS011;45266;48.756;9.246;2022-08-20T03:44:55;6.00;;;2.47;;
55647;SDS011;45266;48.756;9.246;2022-08-20T03:45:59;3.40;;;2.20;;
55647;SDS011;45266;48.756;9.246;2022-08-20T03:47:02;2.53;;;2.33;;
55647;SDS011;45266;48.756;9.246;2022-08-20T03:48:08;2.83;;;2.20;;
55647;SDS011;45266;48.756;9.246;2022-08-20T03:49:12;3.90;;;2.30;;
55647;SDS011;45266;48.756;9.246;2022-08-20T03:50:13;3.97;;;2.60;;
55647;SDS011;45266;48.756;9.246;2022-08-20T03:51:23;4.35;;;2.50;;
55647;SDS011;45266;48.756;9.246;2022-08-20T03:52:25;2.20;;;2.00;;
55647;SDS011;45266;48.756;9.246;2022-08-20T03:53:29;3.35;;;2.33;;
55647;SDS011;45266;48.756;9.246;2022-08-20T03:54:32;4.97;;;2.10;;
55647;SDS011;45266;48.756;9.246;2022-08-20T03:55:34;2.38;;;1.98;;
55647;SDS011;45266;48.756;9.246;2022-08-20T03:56:36;2.70;;;2.33;;
55647;SDS011;45266;48.756;9.246;2022-08-20T03:57:45;2.97;;;2.70;;
55647;SDS011;45266;48.756;9.246;2022-08-20T03:58:48;4.75;;;2.25;;
55647;SDS011;45266;48.756;9.246;2022-08-20T03:59:49;2.20;;;2.10;;
55647;SDS011;45266;48.756;9.246;2022-08-20T04:00:58;2.72;;;2.47;;
55647;SDS011;45266;48.756;9.246;2022-08-20T04:03:42;2.60;;;2.10;;
55647;SDS011;45266;48.756;9.246;2022-08-20T04:04:44;3.85;;;2.30;;
55647;SDS011;45266;48.756;9.246;2022-08-20T04:05:46;6.00;;;2.38;;
55647;SDS011;45266;48.756;9.246;2022-08-20T04:06:49;2.85;;;2.25;;
55647;SDS011;45266;48.756;9.246;2022-08-20T04:07:51;2.50;;;2.28;;
55647;SDS011;45266;48.756;9.246;2022-08-20T04:08:54;4.78;;;2.40;;
55647;SDS011;45266;48.756;9.246;2022-08-20T04:09:56;2.72;;;2.50;;
55647;SDS011;45266;48.756;9.246;2022-08-20T04:10:58;3.13;;;2.60;;
55647;SDS011;45266;48.756;9.246;2022-08-20T04:12:00;2.60;;;2.20;;
55647;SDS011;45266;48.756;9.246;2022-08-20T04:14:26;5.82;;;2.40;;
55647;SDS011;45266;48.756;9.246;2022-08-20T04:15:29;2.40;;;2.20;;
55647;SDS011;45266;48.756;9.246;2022-08-20T04:16:32;3.50;;;2.00;;
55647;SDS011;45266;48.756;9.246;2022-08-20T04:17:35;2.47;;;2.25;;
55647;SDS011;45266;48.756;9.246;2022-08-20T04:18:39;3.00;;;2.22;;
55647;SDS011;45266;48.756;9.246;2022-08-20T04:19:41;3.40;;;2.35;;
55647;SDS011;45266;48.756;9.246;2022-08-20T04:20:45;2.60;;;2.17;;
55647;SDS011;45266;48.756;9.246;2022-08-20T04:21:47;3.53;;;2.40;;
55647;SDS011;45266;48.756;9.246;2022-08-20T04:22:49;2.22;;;2.13;;
55647;SDS011;45266;48.756;9.246;2022-08-20T04:24:07;4.72;;;2.33;;
55647;SDS011;45266;48.756;9.246;2022-08-20T04:25:30;2.60;;;2.40;;
55647;SDS011;45266;48.756;9.246;2022-08-20T04:26:36;2.85;;;2.53;;
55647;SDS011;45266;48.756;9.246;2022-08-20T04:27:38;2.70;;;2.47;;
55647;SDS011;45266;48.756;9.246;2022-08-20T04:28:40;2.22;;;2.03;;
55647;SDS011;45266;48.756;9.246;2022-08-20T04:29:42;2.30;;;2.00;;
55647;SDS011;45266;48.756;9.246;2022-08-20T04:30:44;2.33;;;2.13;;
55647;SDS011;45266;48.756;9.246;2022-08-20T04:31:52;3.03;;;2.50;;
55647;SDS011;45266;48.756;9.246;2022-08-20T04:32:54;2.75;;;2.22;;
55647;SDS011;45266;48.756;9.246;2022-08-20T04:33:56;5.03;;;2.38;;
55647;SDS011;45266;48.756;9.246;2022-08-20T04:34:57;3.10;;;2.30;;
55647;SDS011;45266;48.756;9.246;2022-08-20T04:36:01;3.05;;;2.30;;
55647;SDS011;45266;48.756;9.246;2022-08-20T04:37:05;3.50;;;2.50;;
55647;SDS011;45266;48.756;9.246;2022-08-20T04:38:18;3.28;;;2.42;;
55647;SDS011;45266;48.756;9.246;2022-08-20T04:39:22;3.10;;;2.15;;
55647;SDS011;45266;48.756;9.246;2022-08-20T04:40:24;4.05;;;2.22;;
55647;SDS011;45266;48.756;9.246;2022-08-20T04:41:45;3.28;;;2.25;;
55647;SDS011;45266;48.756;9.246;2022-08-20T04:42:47;4.78;;;2.33;;
55647;SDS011;45266;48.756;9.246;2022-08-20T04:43:53;2.75;;;2.40;;
55647;SDS011;45266;48.756;9.246;2022-08-20T04:44:56;4.07;;;2.47;;
55647;SDS011;45266;48.756;9.246;2022-08-20T04:45:58;4.40;;;2.40;;
55647;SDS011;45266;48.756;9.246;2022-08-20T04:47:02;2.70;;;2.50;;
55647;SDS011;45266;48.756;9.246;2022-08-20T04:48:04;2.53;;;2.28;;
55647;SDS011;45266;48.756;9.246;2022-08-20T04:49:13;2.60;;;2.33;;
55647;SDS011;45266;48.756;9.246;2022-08-20T04:50:16;7.57;;;2.80;;
55647;SDS011;45266;48.756;9.246;2022-08-20T04:51:18;2.50;;;2.30;;
55647;SDS011;45266;48.756;9.246;2022-08-20T04:52:23;3.45;;;2.40;;
55647;SDS011;45266;48.756;9.246;2022-08-20T04:53:29;2.63;;;2.42;;
55647;SDS011;45266;48.756;9.246;2022-08-20T04:54:31;3.38;;;2.03;;
55647;SDS011;45266;48.756;9.246;2022-08-20T04:55:33;5.10;;;2.33;;
55647;SDS011;45266;48.756;9.246;2022-08-20T04:56:38;4.07;;;2.33;;
55647;SDS011;45266;48.756;9.246;2022-08-20T04:57:40;3.17;;;2.60;;
55647;SDS011;45266;48.756;9.246;2022-08-20T04:58:42;3.53;;;2.50;;
55647;SDS011;45266;48.756;9.246;2022-08-20T05:00:08;2.80;;;2.38;;
55647;SDS011;45266;48.756;9.246;2022-08-20T05:01:14;2.95;;;2.75;;
55647;SDS011;45266;48.756;9.246;2022-08-20T05:02:16;3.20;;;2.90;;
55647;SDS011;45266;48.756;9.246;2022-08-20T05:03:19;2.97;;;2.63;;
55647;SDS011;45266;48.756;9.246;2022-08-20T05:04:21;2.58;;;2.38;;
55647;SDS011;45266;48.756;9.246;2022-08-20T05:05:27;2.67;;;2.40;;
55647;SDS011;45266;48.756;9.246;2022-08-20T05:06:29;3.35;;;2.33;;
55647;SDS011;45266;48.756;9.246;2022-08-20T05:07:32;4.05;;;2.67;;
55647;SDS011;45266;48.756;9.246;2022-08-20T05:08:39;2.70;;;2.30;;
55647;SDS011;45266;48.756;9.246;2022-08-20T05:09:41;3.65;;;2.63;;
55647;SDS011;45266;48.756;9.246;2022-08-20T05:10:44;2.80;;;2.60;;
55647;SDS011;45266;48.756;9.246;2022-08-20T05:11:47;5.07;;;2.75;;
55647;SDS011;45266;48.756;9.246;2022-08-20T05:12:49;3.92;;;2.83;;
55647;SDS011;45266;48.756;9.246;2022-08-20T05:13:57;3.92;;;2.95;;
55647;SDS011;45266;48.756;9.246;2022-08-20T05:14:59;4.13;;;2.97;;
55647;SDS011;45266;48.756;9.246;2022-08-20T05:17:53;3.65;;;2.85;;
55647;SDS011;45266;48.756;9.246;2022-08-20T05:19:01;4.50;;;2.33;;
55647;SDS011;45266;48.756;9.246;2022-08-20T05:20:03;4.57;;;2.70;;
55647;SDS011;45266;48.756;9.246;2022-08-20T05:21:16;2.50;;;2.30;;
55647;SDS011;45266;48.756;9.246;2022-08-20T05:22:18;2.90;;;2.60;;
55647;SDS011;45266;48.756;9.246;2022-08-20T05:23:20;3.00;;;2.33;;
55647;SDS011;45266;48.756;9.246;2022-08-20T05:24:24;3.35;;;2.30;;
55647;SDS011;45266;48.756;9.246;2022-08-20T05:25:29;6.70;;;2.83;;
55647;SDS011;45266;48.756;9.246;2022-08-20T05:26:31;3.63;;;2.70;;
55647;SDS011;45266;48.756;9.246;2022-08-20T05:27:33;4.40;;;2.78;;
55647;SDS011;45266;48.756;9.246;2022-08-20T05:28:36;3.08;;;2.67;;
55647;SDS011;45266;48.756;9.246;2022-08-20T05:29:59;4.30;;;3.00;;
55647;SDS011;45266;48.756;9.246;2022-08-20T05:31:10;2.97;;;2.78;;
55647;SDS011;45266;48.756;9.246;2022-08-20T05:32:12;3.80;;;3.00;;
55647;SDS011;45266;48.756;9.246;2022-08-20T05:33:14;3.00;;;2.70;;
55647;SDS011;45266;48.756;9.246;2022-08-20T05:34:18;2.63;;;2.42;;
55647;SDS011;45266;48.756;9.246;2022-08-20T05:35:20;4.93;;;2.65;;
55647;SDS011;45266;48.756;9.246;2022-08-20T05:36:22;2.90;;;2.70;;
55647;SDS011;45266;48.756;9.246;2022-08-20T05:37:23;3.47;;;2.58;;
55647;SDS011;45266;48.756;9.246;2022-08-20T05:38:26;3.25;;;2.60;;
55647;SDS011;45266;48.756;9.246;2022-08-20T05:39:29;2.97;;;2.70;;
55647;SDS011;45266;48.756;9.246;2022-08-20T05:40:37;5.22;;;2.97;;
55647;SDS011;45266;48.756;9.246;2022-08-20T05:41:40;4.68;;;2.80;;
55647;SDS011;45266;48.756;9.246;2022-08-20T05:42:42;3.25;;;3.00;;
55647;SDS011;45266;48.756;9.246;2022-08-20T05:43:44;3.38;;;3.08;;
55647;SDS011;45266;48.756;9.246;2022-08-20T05:44:51;3.80;;;3.38;;
55647;SDS011;45266;48.756;9.246;2022-08-20T05:45:53;3.03;;;2.72;;
55647;SDS011;45266;48.756;9.246;2022-08-20T05:46:57;3.45;;;2.97;;
55647;SDS011;45266;48.756;9.246;2022-08-20T05:48:04;4.70;;;3.10;;
55647;SDS011;45266;48.756;9.246;2022-08-20T05:49:08;3.95;;;2.90;;
55647;SDS011;45266;48.756;9.246;2022-08-20T05:50:25;5.97;;;3.80;;
55647;SDS011;45266;48.756;9.246;2022-08-20T05:51:27;5.50;;;3.13;;
55647;SDS011;45266;48.756;9.246;2022-08-20T05:52:30;3.80;;;3.50;;
55647;SDS011;45266;48.756;9.246;2022-08-20T05:53:31;4.53;;;3.55;;
55647;SDS011;45266;48.756;9.246;2022-08-20T05:54:34;3.15;;;2.85;;
55647;SDS011;45266;48.756;9.246;2022-08-20T05:55:38;3.47;;;3.13;;
55647;SDS011;45266;48.756;9.246;2022-08-20T05:56:40;5.72;;;3.30;;
55647;SDS011;45266;48.756;9.246;2022-08-20T05:57:43;3.78;;;3.47;;
55647;SDS011;45266;48.756;9.246;2022-08-20T05:58:45;3.55;;;3.25;;
55647;SDS011;45266;48.756;9.246;2022-08-20T05:59:47;3.72;;;3.42;;
55647;SDS011;45266;48.756;9.246;2022-08-20T06:00:49;3.40;;;3.20;;
55647;SDS011;45266;48.756;9.246;2022-08-20T06:01:52;3.70;;;3.35;;
55647;SDS011;45266;48.756;9.246;2022-08-20T06:02:54;3.63;;;3.28;;
55647;SDS011;45266;48.756;9.246;2022-08-20T06:04:15;3.92;;;3.17;;
55647;SDS011;45266;48.756;9.246;2022-08-20T06:05:28;3.78;;;3.28;;
55647;SDS011;45266;48.756;9.246;2022-08-20T06:06:29;4.30;;;3.25;;
55647;SDS011;45266;48.756;9.246;2022-08-20T06:07:47;4.20;;;3.15;;
55647;SDS011;45266;48.756;9.246;2022-08-20T06:08:50;3.45;;;3.17;;
55647;SDS011;45266;48.756;9.246;2022-08-20T06:11:31;4.32;;;3.90;;
55647;SDS011;45266;48.756;9.246;2022-08-20T06:12:37;4.18;;;3.78;;
55647;SDS011;45266;48.756;9.246;2022-08-20T06:13:39;4.90;;;4.38;;
55647;SDS011;45266;48.756;9.246;2022-08-20T06:14:41;5.90;;;3.97;;
55647;SDS011;45266;48.756;9.246;2022-08-20T06:15:43;4.80;;;3.45;;
55647;SDS011;45266;48.756;9.246;2022-08-20T06:16:45;4.70;;;4.20;;
55647;SDS011;45266;48.756;9.246;2022-08-20T06:17:59;4.60;;;4.20;;
55647;SDS011;45266;48.756;9.246;2022-08-20T06:19:01;4.80;;;4.28;;
55647;SDS011;45266;48.756;9.246;2022-08-20T06:20:05;4.45;;;4.05;;
55647;SDS011;45266;48.756;9.246;2022-08-20T06:21:09;4.95;;;4.55;;
55647;SDS011;45266;48.756;9.246;2022-08-20T06:22:11;5.57;;;4.38;;
55647;SDS011;45266;48.756;9.246;2022-08-20T06:23:23;5.18;;;4.72;;
55647;SDS011;45266;48.756;9.246;2022-08-20T06:24:25;5.97;;;5.47;;
55647;SDS011;45266;48.756;9.246;2022-08-20T06:25:27;4.72;;;4.32;;
55647;SDS011;45266;48.756;9.246;2022-08-20T06:26:29;5.05;;;4.53;;
55647;SDS011;45266;48.756;9.246;2022-08-20T06:27:32;5.25;;;4.75;;
55647;SDS011;45266;48.756;9.246;2022-08-20T06:28:35;4.88;;;4.40;;
55647;SDS011;45266;48.756;9.246;2022-08-20T06:29:37;5.18;;;4.05;;
55647;SDS011;45266;48.756;9.246;2022-08-20T06:30:39;4.43;;;4.00;;
55647;SDS011;45266;48.756;9.246;2022-08-20T06:31:41;5.05;;;4.43;;
55647;SDS011;45266;48.756;9.246;2022-08-20T06:32:43;6.32;;;3.80;;
55647;SDS011;45266;48.756;9.246;2022-08-20T06:33:45;4.82;;;4.05;;
55647;SDS011;45266;48.756;9.246;2022-08-20T06:34:47;4.38;;;3.97;;
55647;SDS011;45266;48.756;9.246;2022-08-20T06:35:51;4.28;;;3.88;;
55647;SDS011;45266;48.756;9.246;2022-08-20T06:36:54;4.90;;;3.88;;
55647;SDS011;45266;48.756;9.246;2022-08-20T06:37:57;5.32;;;4.00;;
55647;SDS011;45266;48.756;9.246;2022-08-20T06:39:00;6.45;;;4.07;;
55647;SDS011;45266;48.756;9.246;2022-08-20T06:40:24;4.63;;;4.00;;
55647;SDS011;45266;48.756;9.246;2022-08-20T06:41:25;4.53;;;3.97;;
55647;SDS011;45266;48.756;9.246;2022-08-20T06:42:37;5.18;;;4.05;;
55647;SDS011;45266;48.756;9.246;2022-08-20T06:43:48;4.38;;;3.97;;
55647;SDS011;45266;48.756;9.246;2022-08-20T06:44:54;5.78;;;4.07;;
55647;SDS011;45266;48.756;9.246;2022-08-20T06:45:55;5.82;;;4.47;;
55647;SDS011;45266;48.756;9.246;2022-08-20T06:47:01;4.60;;;4.18;;
55647;SDS011;45266;48.756;9.246;2022-08-20T06:48:05;4.85;;;4.32;;